Lemon Grove, CA (91945)

8:08 PM PDT on September 14, 2014 (GMT -0700)
Jamacha/Lomita | Change Station
CLOSE
Current Station
Personal Weather Station
Location: SAN DIEGO, CA
Elevation: 383 ft
Nearby Weather Stations
Active Advisory: Heat Advisory Active Notice: Record Report

Elev 383 ft 32.72 °N, 117.04 °W | Updated 5 seconds ago

Clear
Clear
80.6 °F
Feels Like 84 °F
N
1.1
Wind Variable Wind from WSW
Gusts 1.1 mph

Today
High -- | Low -- °F
--% Chance of Precip.
Yesterday
High -- | Low -- °F
Precip. -- in
6:31 AM 6:55 PM
Waning Gibbous, 60% visible
Pressure 29.75 in
Visibility 10.0 miles
Clouds Clear
Heat Index 84 °F
Dew Point 69 °F
Humidity 67%
Rainfall 0.00 in
Snow Depth 0 in , 0 in , 0 in
UV 0 out of 12
Pollen 5.80 out of 12
Ozone Unhealthy for Sensitive Groups
PM2.5 Moderate
Flu Activity Not available.
METAR KSEE 150255Z AUTO 00000KT 10SM CLR 28/19 A2975 RMK AO2

More Conditions Fewer Conditions

Pressure 29.75 in
Visibility 10.0 miles
Clouds Clear
Heat Index 84 °F
Dew Point 69 °F
Humidity 67%
Rainfall 0.00 in
Snow Depth 0 in , 0 in , 0 in
UV 0 out of 12
Pollen 5.80 out of 12
Ozone Unhealthy for Sensitive Groups
PM2.5 Moderate
Flu Activity Not available.
METAR KSEE 150255Z AUTO 00000KT 10SM CLR 28/19 A2975 RMK AO2

More Conditions Fewer Conditions

10-Day Weather Forecast

Almanac

Astronomy

Sep. 14, 2014 Rise Set
Actual Time 6:31 AM PDT 6:55 PM PDT
Civil Twilight 6:06 AM PDT 7:20 PM PDT
Nautical Twilight 5:37 AM PDT 7:49 PM PDT
Astronomical Twilight 5:08 AM PDT 8:18 PM PDT
Moon 11:10 PM PDT (9/14) 12:23 PM PDT (9/14)
Length of Visible Light 13h 13m
Length of Day
12h 24m
Tomorrow will be 1m 59s shorter.
Waning Gibbous, 60% of the Moon is Illuminated
Today
Waning Gibbous
Sep 15
Last Quarter
Sep 24
New
Oct 1
First Quarter
Oct 8
Full

Today's Extremes

State Highs State Lows

Community

WunderPhotos

Upload Photos

1,753,388 photos uploaded!

Nearby

Air Quality

  Air Quality AQ Index Pollutant
Yesterday Unhealthy for Sensitive Groups
OZONE
Yesterday Moderate
PM2.5
Current Unhealthy for Sensitive Groups
OZONE
Current Moderate
PM2.5
Sunday Moderate
PM2.5
Sunday Moderate
OZONE
Monday Moderate
PM2.5
Monday Moderate
OZONE

Snow Depth

Station Depth Elevation
Spratt Creek 0 in 6200 ft
Leavitt Meadows 0 in 7200 ft
Hagan's Meadow 0 in 8000 ft
Adin Mountain 0 in 6200 ft
CSS Lab 1 in 6900 ft

Earthquake Activity

City Distance Mag. Time & Date
San Jacinto, California 73 miles 3.1 3:16 PM PDT
2014-09-14
Minimum magnitude displayed is 2.5.

Coastal Water Temperatures

Place Temperature
La Jolla, CA 70.0 °F
San Diego, CA 78.1 °F

Nearby Weather Stations